createdAt,value
2023-04-21T00:01:52.713Z,29.9
2023-04-21T00:07:47.263Z,29.9
2023-04-21T00:13:38.816Z,29.9
2023-04-21T00:19:29.806Z,29.9
2023-04-21T00:25:21.564Z,29.9
2023-04-21T00:31:12.776Z,29.9
2023-04-21T00:36:49.136Z,29.9
2023-04-21T00:42:41.501Z,29.8
2023-04-21T00:48:17.893Z,29.8
2023-04-21T00:53:54.074Z,29.8
2023-04-21T00:59:31.084Z,29.8
2023-04-21T01:05:09.747Z,29.8
2023-04-21T01:11:01.187Z,29.9
2023-04-21T01:16:37.633Z,30.2
2023-04-21T01:22:28.818Z,30.6
2023-04-21T01:28:20.418Z,31.2
2023-04-21T01:34:12.360Z,31.8
2023-04-21T01:40:03.327Z,32.4
2023-04-21T01:45:08.755Z,33.1
2023-04-21T01:50:45.879Z,33.7
2023-04-21T01:56:37.487Z,34.4
2023-04-21T02:01:58.285Z,35.1
2023-04-21T02:07:51.594Z,35.9
2023-04-21T02:13:42.935Z,36.7
2023-04-21T02:19:51.969Z,37.6
2023-04-21T02:25:43.580Z,38.4
2023-04-21T02:31:19.285Z,39.1
2023-04-21T02:37:17.826Z,39.6
2023-04-21T02:43:09.568Z,39.8
2023-04-21T02:49:01.180Z,40
2023-04-21T02:54:53.296Z,40.1
2023-04-21T03:00:45.441Z,40.1
2023-04-21T03:06:38.152Z,40.1
2023-04-21T03:12:29.584Z,40.1
2023-04-21T03:18:22.756Z,40.1
2023-04-21T03:24:14.303Z,40.1
2023-04-21T03:30:06.277Z,40.1
2023-04-21T03:35:43.732Z,40.1
2023-04-21T03:41:46.953Z,40.1
2023-04-21T03:47:39.125Z,40.1
2023-04-21T03:53:33.214Z,40.1
2023-04-21T03:59:24.034Z,40
2023-04-21T04:05:19.442Z,40
2023-04-21T04:11:11.162Z,40
2023-04-21T04:16:32.052Z,40
2023-04-21T04:22:23.685Z,39.9
2023-04-21T04:28:15.263Z,39.9
2023-04-21T04:33:53.458Z,39.9
2023-04-21T04:39:45.726Z,39.9
2023-04-21T04:45:39.669Z,39.9
2023-04-21T04:51:33.823Z,39.8
2023-04-21T04:57:24.783Z,39.8
2023-04-21T05:03:16.926Z,39.8
2023-04-21T05:08:54.416Z,39.8
2023-04-21T05:14:46.078Z,39.8
2023-04-21T05:20:40.995Z,39.7
2023-04-21T05:26:35.461Z,39.7
2023-04-21T05:32:27.248Z,39.6
2023-04-21T05:38:22.458Z,39.6
2023-04-21T05:44:14.631Z,39.6
2023-04-21T05:49:52.493Z,39.6
2023-04-21T05:54:57.976Z,39.5
2023-04-21T06:00:49.386Z,39.5
2023-04-21T06:06:29.379Z,39.5
2023-04-21T06:12:05.883Z,39.4
2023-04-21T06:17:57.447Z,39.4
2023-04-21T06:23:33.212Z,31.9
2023-04-21T06:29:10.135Z,48.6
2023-04-21T06:34:49.906Z,46.3
2023-04-21T06:40:41.444Z,44.8
2023-04-21T06:46:33.776Z,43.8
2023-04-21T06:52:09.864Z,55.1
2023-04-21T06:57:45.285Z,54.4
2023-04-21T07:03:41.679Z,54.9
2023-04-21T07:09:34.336Z,56.9
2023-04-21T07:15:24.898Z,57.1
2023-04-21T07:21:17.598Z,59.2
2023-04-21T07:27:09.314Z,58.1
2023-04-21T07:32:44.605Z,60.4
2023-04-21T07:38:36.805Z,61.4
2023-04-21T07:44:28.092Z,59.3
2023-04-21T07:50:18.999Z,62.3
2023-04-21T07:56:11.117Z,60.1
2023-04-21T08:01:47.179Z,58.3
2023-04-21T08:07:46.737Z,56.6
2023-04-21T08:13:39.748Z,54.6
2023-04-21T08:19:16.367Z,53.6
2023-04-21T08:24:56.380Z,54
2023-04-21T08:30:33.153Z,56.9
2023-04-21T08:37:02.406Z,57
2023-04-21T08:42:57.535Z,54.8
2023-04-21T08:48:53.061Z,56.1
2023-04-21T08:54:46.580Z,58.4
2023-04-21T09:00:53.334Z,62.5
2023-04-21T09:06:21.392Z,64.2
2023-04-21T09:12:15.206Z,64.9
2023-04-21T09:18:07.293Z,66.1
2023-04-21T09:23:44.092Z,62.3
2023-04-21T09:29:38.123Z,63.4
2023-04-21T09:35:50.419Z,60.1
2023-04-21T09:42:24.424Z,63.8
2023-04-21T09:48:42.004Z,55
2023-04-21T09:55:33.554Z,49.1
2023-04-21T10:01:09.855Z,48.4
2023-04-21T10:07:05.850Z,42.9
2023-04-21T10:12:58.847Z,50.3
2023-04-21T10:18:51.359Z,46.1
2023-04-21T10:24:43.533Z,45.4
2023-04-21T10:30:46.476Z,45.4
2023-04-21T10:36:39.548Z,51.4
2023-04-21T10:42:35.903Z,56.4
2023-04-21T10:48:27.368Z,56.6
2023-04-21T10:54:19.610Z,53.4
2023-04-21T11:00:11.069Z,51.1
2023-04-21T11:06:08.121Z,51.8
2023-04-21T11:12:01.477Z,51.9
2023-04-21T11:17:53.140Z,52.8
2023-04-21T11:23:43.988Z,58.3
2023-04-21T11:29:35.948Z,62.1
2023-04-21T11:35:12.091Z,62.6
2023-04-21T11:41:03.760Z,63.3
2023-04-21T11:46:56.532Z,64.7
2023-04-21T11:52:32.818Z,64.9
2023-04-21T11:58:25.224Z,66.3
2023-04-21T12:04:18.146Z,66.2
2023-04-21T12:09:55.877Z,67.1
2023-04-21T12:15:49.260Z,67.4
2023-04-21T12:21:41.806Z,66.6
2023-04-21T12:27:33.314Z,66.3
2023-04-21T12:33:28.461Z,63.9
2023-04-21T12:39:21.695Z,62.9
2023-04-21T12:45:12.920Z,60.6
2023-04-21T12:51:07.052Z,59.3
2023-04-21T12:56:53.497Z,58.7
2023-04-21T13:02:48.319Z,57.8
2023-04-21T13:08:41.413Z,57.1
2023-04-21T13:14:18.661Z,56.5
2023-04-21T13:20:10.137Z,55.9
2023-04-21T13:26:03.702Z,55.4
2023-04-21T13:31:55.462Z,54.7
2023-04-21T13:37:51.479Z,53.6
2023-04-21T13:43:30.996Z,52.9
2023-04-21T13:49:23.841Z,52.4
2023-04-21T13:55:17.253Z,50.3
2023-04-21T14:00:53.466Z,49.1
2023-04-21T14:06:34.503Z,46.8
2023-04-21T14:12:13.264Z,46.4
2023-04-21T14:18:51.671Z,44.8
2023-04-21T14:24:43.111Z,43.8
2023-04-21T14:30:35.269Z,45.4
2023-04-21T14:36:12.537Z,44.4
2023-04-21T14:41:51.535Z,43.7
2023-04-21T14:47:42.650Z,42.4
2023-04-21T14:53:18.621Z,42.1
2023-04-21T14:59:26.287Z,41.9
2023-04-21T15:05:07.139Z,41.7
2023-04-21T15:10:47.310Z,41.6
2023-04-21T15:16:23.992Z,41.4
2023-04-21T15:22:10.808Z,41.3
2023-04-21T15:28:02.044Z,41.1
2023-04-21T15:33:38.556Z,40.9
2023-04-21T15:39:14.467Z,40.9
2023-04-21T15:45:04.080Z,40.8
2023-04-21T15:50:41.494Z,40.7
2023-04-21T15:56:33.882Z,40.6
2023-04-21T16:02:27.799Z,40.4
2023-04-21T16:08:08.248Z,40.3
2023-04-21T16:13:59.697Z,40.1
2023-04-21T16:20:28.203Z,40
2023-04-21T16:26:21.389Z,39.9
2023-04-21T16:32:13.861Z,39.8
2023-04-21T16:38:08.545Z,39.6
2023-04-21T16:44:00.661Z,39.5
2023-04-21T16:49:53.996Z,39.4
2023-04-21T16:55:45.657Z,39.3
2023-04-21T17:01:36.663Z,39.3
2023-04-21T17:07:30.965Z,39.1
2023-04-21T17:13:22.120Z,39
2023-04-21T17:19:15.870Z,38.9
2023-04-21T17:25:24.812Z,38.9
2023-04-21T17:31:30.864Z,38.8
2023-04-21T17:37:50.764Z,38.7
2023-04-21T17:43:42.572Z,38.5
2023-04-21T17:49:34.438Z,38.3
2023-04-21T17:55:10.946Z,38.2
2023-04-21T18:01:02.582Z,38.1
2023-04-21T18:06:41.435Z,38.1
2023-04-21T18:12:18.340Z,38
2023-04-21T18:17:55.393Z,37.9
2023-04-21T18:23:31.773Z,37.9
2023-04-21T18:29:07.208Z,37.9
2023-04-21T18:34:43.449Z,37.8
2023-04-21T18:40:18.692Z,37.8
2023-04-21T18:45:25.056Z,37.8
2023-04-21T18:51:02.171Z,37.7
2023-04-21T18:56:38.203Z,37.7
2023-04-21T19:02:14.814Z,37.6
2023-04-21T19:07:52.840Z,37.6
2023-04-21T19:13:59.923Z,37.5
2023-04-21T19:20:05.438Z,37.6
2023-04-21T19:25:56.829Z,37.6
2023-04-21T19:31:48.315Z,37.8
2023-04-21T19:37:41.365Z,38.3
2023-04-21T19:43:32.159Z,39.2
2023-04-21T19:49:25.019Z,40.1
2023-04-21T19:55:32.231Z,40.8
2023-04-21T20:01:40.846Z,41.5
2023-04-21T20:07:35.233Z,41.9
2023-04-21T20:13:26.332Z,42.3
2023-04-21T20:19:18.237Z,42.4
2023-04-21T20:25:09.921Z,42.5
2023-04-21T20:30:48.277Z,42.6
2023-04-21T20:36:40.106Z,42.6
2023-04-21T20:42:29.013Z,42.6
2023-04-21T20:48:06.097Z,42.5
2023-04-21T20:53:57.519Z,42.5
2023-04-21T20:59:48.803Z,42.5
2023-04-21T21:05:44.958Z,42.5
2023-04-21T21:11:39.918Z,42.4
2023-04-21T21:17:31.102Z,42.4
2023-04-21T21:23:07.327Z,42.4
2023-04-21T21:28:58.141Z,42.4
2023-04-21T21:34:50.263Z,42.4
2023-04-21T21:40:42.219Z,42.3
2023-04-21T21:46:34.103Z,42.3
2023-04-21T21:52:30.348Z,42.3
2023-04-21T21:58:06.352Z,42.3
2023-04-21T22:04:03.181Z,42.2
2023-04-21T22:09:57.383Z,42.2
2023-04-21T22:16:00.912Z,42.1
2023-04-21T22:21:52.300Z,42.1
2023-04-21T22:27:43.426Z,42.1
2023-04-21T22:33:20.202Z,42.1
2023-04-21T22:39:11.166Z,42
2023-04-21T22:45:02.350Z,41.9
2023-04-21T22:50:54.735Z,41.9
2023-04-21T22:56:46.637Z,41.9
2023-04-21T23:02:39.425Z,41.9
2023-04-21T23:08:16.945Z,41.8
2023-04-21T23:14:09.040Z,41.8
2023-04-21T23:20:01.282Z,41.8
2023-04-21T23:25:52.784Z,41.8
2023-04-21T23:31:44.647Z,41.7
2023-04-21T23:37:36.542Z,41.6
2023-04-21T23:43:28.354Z,41.6
2023-04-21T23:49:20.776Z,41.6
2023-04-21T23:54:58.129Z,41.5
